Currently 46°F in Temecula, California, USA
46°F
50°F / 45°F
3 mph SE
0.00"
Saturday, January 23, 2021 7:01 AM PST

Temecula, California Weather Summary
Last 36 Hours

Temperature Winds Hourly Humidity Dewpoint
Time Report Norm Report Norm Max Gusts Precip. Rpt. Norm Rpt. Norm Pressure
1Sat 07:01 AM  46.0°F  43°F  3 mph SE  1 mph  5 mph  0.00"  97%  86%  45°F  39°F  29.90"
Sat 07:00 AM  46.0°F  43°F  2 mph SE  1 mph  5 mph  0.00"  97%  86%  45°F  39°F  29.90"
Sat 06:00 AM  45.3°F  44°F  calm  1 mph  3 mph  0.00"  97%  85%  45°F  39°F  29.92"
3Sat 05:34 AM  45.1°F  44°F  calm  1 mph  3 mph  ----  97%  85%  44°F  40°F  29.91"
Sat 05:00 AM  45.8°F  44°F  calm  1 mph  4 mph  0.00"  97%  84%  45°F  40°F  29.91"
Sat 04:00 AM  47.3°F  45°F  3 mph E  1 mph  7 mph  0.00"  97%  83%  46°F  40°F  29.92"
Sat 03:00 AM  48.1°F  46°F  calm  1 mph  6 mph  0.00"  96%  82%  47°F  40°F  29.93"
Sat 02:00 AM  49.3°F  47°F  calm  1 mph  7 mph  0.00"  96%  80%  48°F  41°F  29.94"
2Sat 01:00 AM  49.8°F  48°F  1 mph W  1 mph  10 mph  0.00"  96%  79%  49°F  41°F  29.94"
Sat 12:00 AM  49.6°F  49°F  3 mph SW  1 mph  11 mph  0.00"  96%  77%  48°F  41°F  29.93"
Fri 11:00 PM  49.1°F  50°F  8 mph SW  1 mph  10 mph  0.00"  96%  75%  48°F  42°F  29.94"
Fri 10:00 PM  49.5°F  51°F  4 mph SW  1 mph  11 mph  0.00"  95%  73%  48°F  42°F  29.94"
Fri 09:00 PM  49.8°F  52°F  6 mph SW  2 mph  13 mph  0.00"  92%  71%  47°F  43°F  29.94"
Fri 08:00 PM  50.8°F  54°F  5 mph S  2 mph  12 mph  0.00"  89%  68%  48°F  44°F  29.94"
Fri 07:00 PM  51.7°F  56°F  5 mph SW  2 mph  14 mph  0.00"  85%  64%  47°F  44°F  29.95"
Fri 06:00 PM  52.0°F  59°F  5 mph W  3 mph  20 mph  0.00"  86%  59%  48°F  44°F  29.95"
Fri 05:00 PM  53.4°F  62°F  7 mph SW  4 mph  15 mph  0.00"  88%  53%  50°F  44°F  29.93"
Fri 04:00 PM  55.4°F  66°F  8 mph SW  5 mph  19 mph  0.00"  87%  47%  51°F  44°F  29.91"
Fri 03:00 PM  58.4°F  68°F  7 mph SW  5 mph  19 mph  0.00"  81%  43%  52°F  43°F  29.89"
Fri 02:00 PM  59.4°F  68°F  8 mph SW  5 mph  16 mph  0.00"  79%  42%  53°F  43°F  29.90"
Fri 01:00 PM  60.8°F  67°F  7 mph SW  5 mph  17 mph  0.00"  78%  44%  54°F  43°F  29.92"
Fri 12:00 PM  61.4°F  64°F  6 mph SW  4 mph  13 mph  0.00"  74%  49%  53°F  44°F  29.96"
Fri 11:00 AM  60.3°F  60°F  8 mph S  3 mph  14 mph  0.00"  78%  57%  53°F  44°F  30.00"
Fri 10:00 AM  57.3°F  54°F  6 mph S  2 mph  13 mph  0.00"  86%  68%  53°F  44°F  30.03"
Fri 09:00 AM  48.9°F  48°F  1 mph SE  1 mph  1 mph  0.00"  95%  79%  47°F  42°F  30.04"
Fri 08:00 AM  45.7°F  44°F  calm  1 mph  4 mph  0.00"  96%  85%  45°F  40°F  30.03"
Fri 07:00 AM  43.2°F  43°F  calm  1 mph  3 mph  0.00"  96%  85%  42°F  39°F  30.03"
Fri 06:00 AM  43.5°F  44°F  calm  1 mph  none  0.00"  96%  84%  42°F  39°F  30.03"
Fri 05:00 AM  44.1°F  44°F  calm  1 mph  none  0.00"  95%  84%  43°F  39°F  30.02"
Fri 04:00 AM  45.8°F  45°F  calm  1 mph  6 mph  0.00"  95%  83%  44°F  40°F  30.02"
Fri 03:00 AM  46.3°F  46°F  calm  1 mph  none  0.00"  95%  81%  45°F  40°F  30.03"
Fri 02:00 AM  46.7°F  47°F  calm  1 mph  1 mph  0.00"  94%  80%  45°F  40°F  30.05"
Fri 01:00 AM  48.1°F  48°F  1 mph NE  1 mph  4 mph  0.00"  94%  78%  46°F  41°F  30.04"
Fri 12:00 AM  48.6°F  49°F  calm  1 mph  none  0.00"  91%  76%  46°F  41°F  30.05"
Thu 11:00 PM  50.9°F  50°F  calm  1 mph  none  0.00"  90%  74%  48°F  42°F  30.05"
Thu 10:00 PM  53.3°F  51°F  calm  1 mph  none  0.00"  88%  72%  50°F  42°F  30.05"
Thu 09:00 PM  55.8°F  53°F  calm  1 mph  5 mph  0.00"  83%  71%  51°F  43°F  30.04"
Thu 08:00 PM  57.8°F  54°F  calm  2 mph  10 mph  0.00"  77%  68%  50°F  43°F  30.03"

  1. Current weather data. No green row appears if the current weather data is also the high or low for the current day.
  2. High temperature for the current day.
  3. Low temperature for the current day.

The Temecula weather pages are a service of WeatherCurrents. Temecula, California is located in the Temecula Valley, in southwestern Riverside County, along the Interstate 15 highway. The Temecula Valley's rolling hills are home to the Temecula wine country, vineyards, golf courses, a casino resort, and Old Town Temecula.
Copyright ©2021  WeatherCurrents. All rights reserved. - Submit questions and comments - Privacy Policy

This page automatically refreshes every 10 minutes.